Time;durP1;ratioP1;P1;durP2;ratioP2;P2;SDS_P1;SDS_P2;PMS_P1;PMS_P2;Temp;Humidity;BMP_temperature;BMP_pressure;BME280_temperature;BME280_humidity;BME280_pressure;Samples;Min_cycle;Max_cycle;Signal;HPM_P1;HPM_P2
2021/05/14 00:02:03;;;;;;;4.60;1.57;;;;;;;12.86;78.63;100135.16;1701012;83;21083;-66
2021/05/14 00:04:30;;;;;;;3.83;1.77;;;;;;;12.79;79.42;100135.10;1698707;84;21714;-67
2021/05/14 00:06:57;;;;;;;4.10;2.30;;;;;;;12.71;80.27;100146.27;1707102;83;21086;-67
2021/05/14 00:09:24;;;;;;;2.40;1.57;;;;;;;12.67;80.57;100147.86;1717332;83;21028;-66
2021/05/14 00:11:52;;;;;;;6.05;1.77;;;;;;;12.60;80.17;100138.78;1708412;83;21106;-67
2021/05/14 00:14:18;;;;;;;2.70;1.50;;;;;;;12.58;79.69;100129.92;1707188;83;21095;-67
2021/05/14 00:16:45;;;;;;;4.53;1.70;;;;;;;12.54;79.39;100133.73;1698895;84;21120;-67
2021/05/14 00:19:12;;;;;;;4.75;1.50;;;;;;;12.53;79.16;100134.69;1711978;83;21079;-66
2021/05/14 00:21:39;;;;;;;4.20;1.60;;;;;;;12.53;79.18;100142.75;1718985;83;21899;-67
2021/05/14 00:26:50;;;;;;;3.65;1.80;;;;;;;12.53;79.83;100134.69;1725376;82;21079;-66
2021/05/14 00:29:17;;;;;;;3.47;1.55;;;;;;;12.53;80.18;100115.88;1696254;84;21173;-66
2021/05/14 00:31:44;;;;;;;3.83;2.17;;;;;;;12.52;80.25;100107.88;1719088;82;21543;-66
2021/05/14 00:34:11;;;;;;;4.37;1.80;;;;;;;12.51;80.72;100107.02;1711908;83;21065;-65
2021/05/14 00:36:37;;;;;;;4.05;1.55;;;;;;;12.53;80.85;100106.91;1696538;83;21085;-66
2021/05/14 00:39:04;;;;;;;2.83;1.60;;;;;;;12.56;80.82;100115.70;1705751;83;21511;-65
2021/05/14 00:41:31;;;;;;;5.67;1.87;;;;;;;12.59;80.83;100127.63;1719289;83;21079;-64
2021/05/14 00:43:59;;;;;;;4.55;2.10;;;;;;;12.64;81.04;100125.16;1717954;82;21224;-64
2021/05/14 00:46:25;;;;;;;4.20;1.80;;;;;;;12.67;81.60;100133.06;1722322;82;21129;-65
2021/05/14 00:48:52;;;;;;;3.40;1.85;;;;;;;12.68;82.12;100130.77;1721789;82;21157;-64
2021/05/14 00:51:19;;;;;;;3.72;1.80;;;;;;;12.68;82.54;100121.35;1725810;82;21800;-65
2021/05/14 00:53:46;;;;;;;7.22;1.77;;;;;;;12.69;83.48;100125.78;1711915;82;21603;-66
2021/05/14 00:56:12;;;;;;;4.05;1.70;;;;;;;12.68;84.12;100122.70;1717541;83;21134;-66
2021/05/14 00:58:39;;;;;;;9.38;2.00;;;;;;;12.65;84.35;100121.52;1718080;82;21594;-65
2021/05/14 01:01:05;;;;;;;7.53;2.22;;;;;;;12.64;84.53;100120.67;1734760;80;21025;-65
2021/05/14 01:03:32;;;;;;;5.65;2.30;;;;;;;12.61;84.60;100110.94;1729736;81;21109;-65
2021/05/14 01:05:59;;;;;;;6.17;2.17;;;;;;;12.59;84.74;100104.77;1719319;82;21038;-65
2021/05/14 01:08:26;;;;;;;3.47;2.20;;;;;;;12.57;85.07;100102.64;1685940;82;21639;-65
2021/05/14 01:10:52;;;;;;;4.47;1.65;;;;;;;12.55;85.25;100091.56;1717961;83;21137;-64
2021/05/14 01:13:26;;;;;;;4.62;1.87;;;;;;;12.52;85.43;100085.90;1717957;83;21467;-65
2021/05/14 01:15:53;;;;;;;4.37;1.90;;;;;;;12.51;85.78;100077.91;1725089;81;21316;-65
2021/05/14 01:18:19;;;;;;;3.55;2.00;;;;;;;12.50;85.85;100077.52;1727572;82;21457;-64
2021/05/14 01:20:46;;;;;;;7.95;2.45;;;;;;;12.50;86.24;100089.61;1717502;82;22420;-65
2021/05/14 01:23:13;;;;;;;3.98;2.12;;;;;;;12.49;86.72;100083.84;1723593;81;21090;-64
2021/05/14 01:25:40;;;;;;;6.00;2.20;;;;;;;12.48;87.07;100076.23;1729442;81;21147;-64
2021/05/14 01:28:07;;;;;;;2.30;2.10;;;;;;;12.47;87.49;100078.53;1747285;80;21078;-65
2021/05/14 01:30:34;;;;;;;5.75;2.08;;;;;;;12.46;88.60;100076.80;1761405;79;21148;-64
2021/05/14 01:33:00;;;;;;;5.28;2.37;;;;;;;12.40;88.71;100071.76;1710453;83;21379;-64
2021/05/14 01:35:27;;;;;;;6.05;2.17;;;;;;;12.38;89.50;100074.55;1763323;79;21527;-64
2021/05/14 01:37:54;;;;;;;5.20;2.05;;;;;;;12.37;89.87;100070.58;1724884;81;21579;-65
2021/05/14 01:40:20;;;;;;;4.33;2.22;;;;;;;12.37;90.25;100063.38;1760249;81;21092;-64
2021/05/14 01:42:47;;;;;;;5.75;2.27;;;;;;;12.38;90.70;100060.22;1724654;83;21106;-65
2021/05/14 01:45:14;;;;;;;3.65;2.08;;;;;;;12.38;91.02;100054.84;1773662;79;21021;-65
2021/05/14 01:47:41;;;;;;;9.38;2.55;;;;;;;12.39;91.37;100051.20;1754679;80;21082;-65
2021/05/14 01:50:09;;;;;;;8.70;2.80;;;;;;;12.36;91.29;100035.25;1772585;80;21118;-65
2021/05/14 01:52:37;;;;;;;5.03;2.30;;;;;;;12.38;91.75;100025.28;1750971;80;21169;-65
2021/05/14 01:55:07;;;;;;;4.00;2.25;;;;;;;12.38;91.89;100025.28;1712716;83;21874;-65
2021/05/14 01:57:33;;;;;;;5.40;2.45;;;;;;;12.40;92.04;100017.99;1747905;82;21398;-64
2021/05/14 02:00:00;;;;;;;6.03;2.27;;;;;;;12.42;91.96;100020.13;1716512;82;21122;-64
2021/05/14 02:02:26;;;;;;;6.28;2.30;;;;;;;12.42;91.88;100021.47;1736427;82;21106;-64
2021/05/14 02:04:53;;;;;;;6.65;2.30;;;;;;;12.43;91.97;100028.58;1725053;83;21066;-64
2021/05/14 02:07:20;;;;;;;3.45;2.30;;;;;;;12.44;92.03;100023.59;1738239;79;21090;-65
2021/05/14 02:09:47;;;;;;;7.33;2.50;;;;;;;12.44;92.23;100019.56;1766492;80;21073;-63
2021/05/14 02:12:13;;;;;;;8.30;2.65;;;;;;;12.43;92.36;100025.89;1687109;84;21029;-64
2021/05/14 02:14:40;;;;;;;5.78;2.40;;;;;;;12.44;92.49;100033.89;1758657;80;21498;-64
2021/05/14 02:17:08;;;;;;;5.90;2.67;;;;;;;12.45;92.60;100034.73;1739977;80;21085;-64
2021/05/14 02:19:36;;;;;;;6.33;2.40;;;;;;;12.47;92.79;100032.83;1725136;83;21162;-64
2021/05/14 02:22:04;;;;;;;6.72;2.25;;;;;;;12.48;93.12;100020.27;1756970;79;20958;-64
2021/05/14 02:24:32;;;;;;;6.30;2.52;;;;;;;12.47;93.42;100018.05;1723471;82;21230;-64
2021/05/14 02:26:58;;;;;;;6.37;2.42;;;;;;;12.46;93.51;100017.19;1746529;80;21126;-63
2021/05/14 02:29:25;;;;;;;4.97;2.35;;;;;;;12.49;93.66;100016.63;1754287;81;21124;-64
2021/05/14 02:31:52;;;;;;;5.20;2.35;;;;;;;12.51;93.56;100008.88;1745931;82;21593;-64
2021/05/14 02:34:19;;;;;;;4.92;2.02;;;;;;;12.54;93.48;100001.10;1751419;81;22831;-63
2021/05/14 02:36:47;;;;;;;5.20;2.08;;;;;;;12.54;93.50;100015.43;1730713;82;21112;-64
2021/05/14 02:39:13;;;;;;;5.40;2.35;;;;;;;12.58;93.62;100034.47;1746310;80;21099;-64
2021/05/14 02:41:40;;;;;;;6.22;2.22;;;;;;;12.64;93.80;100029.70;1754830;81;21573;-64
2021/05/14 02:44:08;;;;;;;6.30;2.22;;;;;;;12.69;93.82;100033.87;1750894;80;21169;-64
2021/05/14 02:46:35;;;;;;;4.20;2.70;;;;;;;12.74;93.70;100039.01;1741169;80;21079;-65
2021/05/14 02:49:03;;;;;;;10.00;2.70;;;;;;;12.77;93.64;100042.88;1758953;81;21526;-63
2021/05/14 02:51:30;;;;;;;6.65;2.55;;;;;;;12.82;93.49;100038.56;1777672;80;21120;-63
2021/05/14 02:53:56;;;;;;;9.90;2.05;;;;;;;12.87;93.37;100029.28;1741524;80;21024;-66
2021/05/14 02:56:22;;;;;;;11.63;2.83;;;;;;;12.93;93.18;100031.23;1743051;80;21089;-66
2021/05/14 02:58:49;;;;;;;7.58;2.65;;;;;;;13.01;93.04;100032.53;1781263;80;21122;-63
2021/05/14 03:01:15;;;;;;;5.45;2.10;;;;;;;13.14;92.72;100038.08;1753079;81;21050;-64
2021/05/14 03:03:42;;;;;;;7.70;2.47;;;;;;;13.24;92.18;100040.27;1736999;81;21116;-63
2021/05/14 03:06:09;;;;;;;6.35;2.22;;;;;;;13.33;91.76;100037.91;1757803;80;21128;-64
2021/05/14 03:08:36;;;;;;;5.78;2.15;;;;;;;13.43;91.28;100038.28;1727901;81;22269;-66
2021/05/14 03:11:03;;;;;;;7.20;2.65;;;;;;;13.52;90.93;100034.64;1739185;82;21057;-65
2021/05/14 03:13:30;;;;;;;5.10;2.10;;;;;;;13.59;90.75;100040.05;1737164;82;21532;-64
2021/05/14 03:15:57;;;;;;;4.67;2.05;;;;;;;13.66;90.62;100034.70;1721963;81;21088;-66
2021/05/14 03:18:23;;;;;;;5.83;2.27;;;;;;;13.73;90.44;100033.87;1750389;81;21074;-64
2021/05/14 03:20:49;;;;;;;4.83;2.02;;;;;;;13.81;90.32;100041.46;1745877;81;21560;-66
2021/05/14 03:23:16;;;;;;;4.85;2.10;;;;;;;13.86;90.12;100036.69;1730924;80;21011;-66
2021/05/14 03:25:42;;;;;;;6.20;2.40;;;;;;;13.94;90.05;100043.82;1724573;82;21047;-64
2021/05/14 03:28:09;;;;;;;4.80;2.58;;;;;;;14.00;89.91;100038.05;1704606;82;21113;-67
2021/05/14 03:30:35;;;;;;;7.40;2.50;;;;;;;14.06;89.76;100042.20;1762827;81;21066;-65
2021/05/14 03:33:02;;;;;;;6.12;2.45;;;;;;;14.13;89.54;100058.88;1757582;81;22321;-62
2021/05/14 03:35:28;;;;;;;8.80;2.83;;;;;;;14.18;89.22;100058.11;1715823;83;20979;-64
2021/05/14 03:37:55;;;;;;;9.38;2.80;;;;;;;14.22;88.95;100054.75;1753124;81;21057;-65
2021/05/14 03:40:34;;;;;;;7.97;2.72;;;;;;;14.25;88.98;100054.06;1750795;80;20982;-66
2021/05/14 03:42:50;;;;;;;5.83;2.55;;;;;;;14.31;88.70;100056.41;1753091;81;21082;-62
2021/05/14 03:45:18;;;;;;;10.38;3.05;;;;;;;14.40;88.42;100049.57;1716078;83;21153;-64
2021/05/14 03:47:44;;;;;;;5.45;2.05;;;;;;;14.48;87.80;100057.19;1768137;80;21029;-66
2021/05/14 03:50:13;;;;;;;5.70;2.08;;;;;;;14.57;87.09;100055.72;1784129;80;21138;-65
2021/05/14 03:52:39;;;;;;;5.72;2.05;;;;;;;14.67;86.32;100061.40;1781646;80;21108;-64
2021/05/14 03:55:07;;;;;;;7.97;2.17;;;;;;;14.76;85.43;100066.27;1750136;80;21330;-64
2021/05/14 03:57:34;;;;;;;5.50;2.00;;;;;;;14.85;84.85;100065.66;1763131;80;21836;-64
2021/05/14 04:00:01;;;;;;;11.78;2.62;;;;;;;14.95;84.16;100066.44;1786379;80;21096;-66
2021/05/14 04:02:27;;;;;;;5.37;1.92;;;;;;;15.07;83.67;100073.73;1746578;80;21491;-64
2021/05/14 04:04:55;;;;;;;5.00;2.22;;;;;;;15.20;82.77;100076.99;1782266;80;21089;-63
2021/05/14 04:07:22;;;;;;;9.60;2.60;;;;;;;15.30;81.82;100071.36;1777930;80;21056;-63
2021/05/14 04:10:14;;;;;;;7.00;2.10;;;;;;;15.40;81.43;100079.25;1780111;79;21639;-63
2021/05/14 04:14:48;;;;;;;7.20;1.85;;;;;;;15.63;80.63;100071.45;1719934;80;21687;-64
2021/05/14 04:17:15;;;;;;;5.75;2.05;;;;;;;15.76;79.87;100070.98;1721540;83;21634;-64
2021/05/14 04:19:41;;;;;;;6.00;1.80;;;;;;;15.89;79.12;100076.95;1771777;80;20931;-63
2021/05/14 04:22:08;;;;;;;5.28;1.98;;;;;;;15.99;78.23;100078.04;1755928;80;21610;-63
2021/05/14 04:24:34;;;;;;;5.53;1.92;;;;;;;16.04;77.45;100081.32;1768629;80;21098;-64
2021/05/14 04:27:01;;;;;;;5.28;2.00;;;;;;;16.10;76.81;100085.41;1724998;81;21124;-65
2021/05/14 04:29:27;;;;;;;6.78;1.80;;;;;;;16.17;76.61;100086.74;1745816;80;21062;-66
2021/05/14 04:31:54;;;;;;;5.87;2.20;;;;;;;16.27;76.15;100095.09;1766670;80;21060;-66
2021/05/14 04:34:20;;;;;;;8.43;1.98;;;;;;;16.38;75.88;100100.22;1777244;80;21087;-66
2021/05/14 04:36:47;;;;;;;5.20;1.70;;;;;;;16.48;75.21;100104.03;1766383;80;21613;-65
2021/05/14 04:39:14;;;;;;;4.67;1.90;;;;;;;16.56;74.37;100106.16;1765965;79;21129;-67
2021/05/14 04:41:40;;;;;;;4.75;1.60;;;;;;;16.61;73.89;100111.64;1781909;80;21073;-66
2021/05/14 04:44:08;;;;;;;6.87;1.50;;;;;;;16.71;73.43;100111.86;1726605;81;21464;-67
2021/05/14 04:46:34;;;;;;;3.83;1.65;;;;;;;16.83;73.38;100110.11;1705125;83;21588;-67
2021/05/14 04:49:01;;;;;;;3.77;1.50;;;;;;;16.92;73.00;100114.00;1733726;81;21054;-65
2021/05/14 04:51:28;;;;;;;6.08;1.92;;;;;;;16.99;73.31;100106.34;1729896;81;21032;-67
2021/05/14 04:53:56;;;;;;;4.12;1.47;;;;;;;17.08;73.25;100108.37;1762299;80;21028;-64
2021/05/14 04:56:22;;;;;;;4.35;1.52;;;;;;;17.18;72.89;100107.20;1783895;80;21097;-66
2021/05/14 04:58:49;;;;;;;9.15;1.80;;;;;;;17.25;72.83;100111.69;1782482;80;21133;-64
2021/05/14 05:01:16;;;;;;;7.28;1.90;;;;;;;17.30;72.77;100113.56;1771935;80;21075;-66
2021/05/14 05:03:45;;;;;;;3.87;1.57;;;;;;;17.37;72.36;100112.63;1761564;80;21113;-65
2021/05/14 05:06:12;;;;;;;5.35;1.77;;;;;;;17.43;72.16;100121.18;1761840;80;21050;-64
2021/05/14 05:08:38;;;;;;;6.78;2.12;;;;;;;17.50;72.00;100124.78;1743842;79;21561;-66
2021/05/14 05:11:05;;;;;;;4.70;1.60;;;;;;;17.56;71.85;100124.31;1747725;80;21647;-67
2021/05/14 05:13:32;;;;;;;4.87;1.87;;;;;;;17.64;71.72;100128.69;1770958;80;21109;-66
2021/05/14 05:15:59;;;;;;;7.35;2.10;;;;;;;17.68;71.42;100124.77;1786094;80;21104;-64
2021/05/14 05:18:27;;;;;;;5.65;2.22;;;;;;;17.63;71.56;100126.96;1777825;80;21092;-64
2021/05/14 05:20:54;;;;;;;5.10;1.90;;;;;;;17.62;71.47;100132.01;1759827;80;21536;-66
2021/05/14 05:23:21;;;;;;;5.42;1.90;;;;;;;17.67;71.43;100133.88;1769407;80;21202;-64
2021/05/14 05:25:48;;;;;;;5.10;1.87;;;;;;;17.69;70.87;100138.69;1773980;80;21494;-67
2021/05/14 05:28:14;;;;;;;8.28;1.72;;;;;;;17.69;70.90;100135.13;1776727;80;21626;-65
2021/05/14 05:30:41;;;;;;;7.22;2.20;;;;;;;17.73;71.07;100138.83;1781954;80;21477;-68
2021/05/14 05:33:07;;;;;;;7.72;2.10;;;;;;;17.79;71.48;100136.63;1770048;80;21006;-64
2021/05/14 05:35:34;;;;;;;4.55;1.98;;;;;;;17.84;71.50;100139.38;1769496;80;21631;-65
2021/05/14 05:38:01;;;;;;;7.15;2.15;;;;;;;17.88;71.64;100141.38;1750927;79;21616;-67
2021/05/14 05:40:28;;;;;;;11.63;2.20;;;;;;;17.82;71.78;100139.98;1761797;80;21116;-67
2021/05/14 05:42:54;;;;;;;4.80;2.00;;;;;;;17.76;72.15;100138.59;1771714;80;21125;-67
2021/05/14 05:45:21;;;;;;;5.58;2.17;;;;;;;17.69;72.58;100140.05;1761369;79;21135;-66
2021/05/14 05:47:49;;;;;;;3.47;1.90;;;;;;;17.71;72.92;100142.15;1770444;79;21109;-64
2021/05/14 05:50:16;;;;;;;7.10;2.35;;;;;;;17.79;72.69;100144.77;1717333;81;21116;-67
2021/05/14 05:52:43;;;;;;;9.25;2.72;;;;;;;17.87;72.18;100153.20;1754500;79;21091;-67
2021/05/14 05:55:10;;;;;;;7.83;2.60;;;;;;;17.85;72.00;100155.17;1763009;79;21398;-63
2021/05/14 05:57:36;;;;;;;8.98;2.70;;;;;;;17.85;72.21;100155.17;1760732;79;21079;-66
2021/05/14 06:00:06;;;;;;;4.37;2.27;;;;;;;17.81;72.44;100150.46;1749218;80;21184;-67
2021/05/14 06:02:33;;;;;;;5.62;2.40;;;;;;;17.78;72.43;100153.88;1750052;80;21918;-64
2021/05/14 06:04:59;;;;;;;6.78;2.60;;;;;;;17.86;72.77;100159.61;1759921;79;21642;-64
2021/05/14 06:07:29;;;;;;;6.60;2.40;;;;;;;18.07;72.79;100161.72;1745040;79;21551;-65
2021/05/14 06:09:56;;;;;;;7.30;2.30;;;;;;;18.27;72.52;100159.70;1694369;83;21542;-62
2021/05/14 06:12:22;;;;;;;5.00;2.22;;;;;;;18.50;71.79;100162.48;1761160;79;21212;-67
2021/05/14 06:14:50;;;;;;;5.17;2.30;;;;;;;18.74;71.10;100165.61;1749189;80;21091;-66
2021/05/14 06:17:17;;;;;;;11.90;3.05;;;;;;;19.04;69.91;100176.40;1746157;79;21031;-68
2021/05/14 06:19:56;;;;;;;11.25;2.60;;;;;;;19.29;68.94;100179.37;1750265;79;21078;-65
2021/05/14 06:22:21;;;;;;;10.58;3.02;;;;;;;19.51;67.70;100176.73;1753937;79;21156;-65
2021/05/14 06:24:50;;;;;;;11.63;2.98;;;;;;;19.57;67.05;100173.54;1758056;79;23202;-66
2021/05/14 06:27:16;;;;;;;8.60;2.62;;;;;;;19.53;66.68;100180.20;1748597;80;21115;-64
2021/05/14 06:29:46;;;;;;;6.97;2.55;;;;;;;19.46;67.02;100180.70;1741409;79;21124;-64
2021/05/14 06:32:12;;;;;;;10.23;2.70;;;;;;;19.52;67.09;100190.22;1750175;79;21151;-66
2021/05/14 06:34:39;;;;;;;8.73;2.50;;;;;;;19.59;67.01;100182.44;1750760;79;22107;-68
2021/05/14 06:37:05;;;;;;;5.62;2.40;;;;;;;19.73;66.78;100185.36;1720623;81;21637;-66
2021/05/14 06:39:32;;;;;;;7.97;3.25;;;;;;;19.88;66.07;100190.02;1750528;80;21553;-65
2021/05/14 06:41:58;;;;;;;7.03;2.70;;;;;;;20.00;65.57;100180.84;1738634;80;21501;-67
2021/05/14 06:44:25;;;;;;;7.42;2.92;;;;;;;20.14;65.20;100185.63;1744090;80;21584;-67
2021/05/14 06:46:52;;;;;;;8.58;2.55;;;;;;;20.15;65.08;100191.44;1740731;80;21141;-66
2021/05/14 06:49:19;;;;;;;6.37;2.90;;;;;;;20.09;65.32;100197.41;1744801;81;21134;-67
2021/05/14 06:51:45;;;;;;;8.03;2.90;;;;;;;20.07;65.89;100192.59;1733628;80;21116;-69
2021/05/14 06:54:11;;;;;;;6.85;2.70;;;;;;;20.25;65.52;100192.41;1742538;81;21499;-68
2021/05/14 06:56:39;;;;;;;9.20;2.77;;;;;;;20.31;64.99;100191.88;1742052;80;21371;-68
2021/05/14 06:59:06;;;;;;;7.62;3.20;;;;;;;20.32;65.02;100196.80;1739635;80;21088;-68
2021/05/14 07:01:32;;;;;;;11.97;4.22;;;;;;;20.26;65.28;100198.70;1752768;79;21433;-67
2021/05/14 07:03:59;;;;;;;7.87;3.17;;;;;;;20.18;65.57;100201.58;1752046;79;21195;-67
2021/05/14 07:06:27;;;;;;;5.83;3.12;;;;;;;20.12;65.79;100199.86;1755382;79;21066;-65
2021/05/14 07:08:54;;;;;;;9.13;3.12;;;;;;;20.02;65.84;100199.30;1745276;79;21494;-66
2021/05/14 07:11:21;;;;;;;11.22;3.35;;;;;;;19.88;66.22;100201.75;1757474;79;21450;-66
2021/05/14 07:13:47;;;;;;;10.03;3.72;;;;;;;19.81;66.93;100205.13;1761677;79;21115;-65
2021/05/14 07:16:14;;;;;;;9.70;2.90;;;;;;;19.79;67.40;100200.32;1723447;81;21638;-67
2021/05/14 07:18:41;;;;;;;10.60;3.00;;;;;;;19.85;67.29;100209.31;1714924;81;22057;-67
2021/05/14 07:21:08;;;;;;;9.93;3.35;;;;;;;19.93;67.11;100200.05;1740113;80;21072;-68
2021/05/14 07:23:47;;;;;;;10.38;3.33;;;;;;;20.00;66.97;100209.41;1748171;80;21126;-66
2021/05/14 07:26:21;;;;;;;10.50;3.50;;;;;;;20.04;66.93;100204.11;1731536;80;21811;-64
2021/05/14 07:28:59;;;;;;;9.53;3.45;;;;;;;20.02;66.83;100207.94;1716259;80;21821;-62
2021/05/14 07:31:30;;;;;;;10.20;3.62;;;;;;;20.01;66.77;100207.57;1665244;83;21558;-65
2021/05/14 07:33:57;;;;;;;7.30;3.20;;;;;;;19.93;66.84;100220.45;1738226;80;21062;-68
2021/05/14 07:36:26;;;;;;;9.55;3.42;;;;;;;19.84;67.49;100217.11;1740271;80;21122;-66
2021/05/14 07:38:53;;;;;;;12.25;3.65;;;;;;;19.81;67.58;100216.02;1729113;80;21637;-66
2021/05/14 07:41:20;;;;;;;10.93;3.15;;;;;;;19.83;67.79;100208.59;1732865;80;21080;-67
2021/05/14 07:43:46;;;;;;;16.35;3.33;;;;;;;19.87;67.50;100223.66;1726311;80;21104;-66
2021/05/14 07:46:14;;;;;;;12.40;3.08;;;;;;;19.90;67.62;100226.11;1733368;80;21499;-65
2021/05/14 07:48:41;;;;;;;14.40;3.08;;;;;;;19.96;67.83;100222.91;1726724;80;21059;-67
2021/05/14 07:51:07;;;;;;;13.15;3.22;;;;;;;20.03;67.71;100220.06;1729815;80;21113;-65
2021/05/14 07:53:34;;;;;;;9.98;3.15;;;;;;;20.15;67.25;100214.57;1739789;80;21181;-66
2021/05/14 07:56:02;;;;;;;14.18;3.55;;;;;;;20.24;66.72;100215.17;1739018;80;21111;-68
2021/05/14 07:58:28;;;;;;;11.43;3.00;;;;;;;20.33;66.18;100216.22;1728582;80;21154;-67
2021/05/14 08:00:55;;;;;;;11.97;3.05;;;;;;;20.46;65.50;100216.06;1694098;82;21117;-66
2021/05/14 08:03:21;;;;;;;9.20;2.70;;;;;;;20.56;64.66;100217.51;1727364;80;21199;-67
2021/05/14 08:05:50;;;;;;;8.08;2.98;;;;;;;20.64;64.53;100214.09;1744995;80;21059;-66
2021/05/14 08:08:22;;;;;;;8.50;2.77;;;;;;;20.65;64.36;100214.45;1739292;80;21518;-68
2021/05/14 08:10:50;;;;;;;14.68;3.10;;;;;;;20.63;64.22;100215.09;1722229;80;21140;-66
2021/05/14 08:13:18;;;;;;;6.75;2.98;;;;;;;20.58;64.18;100216.36;1722529;80;21207;-67
2021/05/14 08:15:45;;;;;;;5.58;2.50;;;;;;;20.58;63.96;100213.64;1727794;80;21097;-67
2021/05/14 08:18:12;;;;;;;9.48;2.70;;;;;;;20.57;63.87;100209.19;1729098;80;21090;-68
2021/05/14 08:20:41;;;;;;;10.75;3.02;;;;;;;20.59;63.65;100214.52;1729007;80;21706;-67
2021/05/14 08:23:08;;;;;;;11.45;3.77;;;;;;;20.64;63.45;100212.73;1731106;80;21125;-66
2021/05/14 08:25:35;;;;;;;4.33;2.55;;;;;;;20.63;63.33;100217.81;1729408;80;21413;-66
2021/05/14 08:28:04;;;;;;;6.10;2.75;;;;;;;20.64;63.33;100212.73;1726688;80;21142;-67
2021/05/14 08:30:30;;;;;;;7.12;3.15;;;;;;;20.70;63.22;100214.95;1701800;82;20957;-66
2021/05/14 08:32:57;;;;;;;3.42;2.25;;;;;;;20.78;63.03;100211.53;1697893;82;21504;-69
2021/05/14 08:35:23;;;;;;;5.80;2.50;;;;;;;20.86;62.54;100213.14;1697489;82;21125;-68
2021/05/14 08:37:50;;;;;;;5.12;2.27;;;;;;;20.91;61.81;100216.84;1696466;82;21664;-68
2021/05/14 08:40:17;;;;;;;4.78;2.50;;;;;;;20.91;61.36;100219.56;1645451;84;21610;-66
2021/05/14 08:42:44;;;;;;;3.92;2.40;;;;;;;20.91;61.06;100223.13;1689832;82;21022;-67
2021/05/14 08:45:13;;;;;;;7.92;2.47;;;;;;;20.93;60.99;100229.83;1696315;82;21158;-67
2021/05/14 08:47:41;;;;;;;5.70;2.90;;;;;;;20.88;60.73;100221.53;1701910;82;20994;-67
2021/05/14 08:50:10;;;;;;;5.45;2.42;;;;;;;20.82;60.76;100219.86;1662377;83;21195;-65
2021/05/14 08:52:42;;;;;;;5.70;2.67;;;;;;;20.80;60.01;100224.07;1703388;81;21075;-68
2021/05/14 08:55:13;;;;;;;4.50;2.35;;;;;;;20.78;60.18;100224.67;1705862;81;21463;-67
2021/05/14 08:57:40;;;;;;;5.67;2.33;;;;;;;20.69;60.74;100232.29;1707405;81;20950;-68
2021/05/14 09:00:09;;;;;;;6.45;2.50;;;;;;;20.56;61.25;100241.50;1695170;81;21062;-68
2021/05/14 09:02:37;;;;;;;7.78;2.55;;;;;;;20.39;62.19;100233.42;1694849;82;20955;-68
2021/05/14 09:05:34;;;;;;;7.97;2.60;;;;;;;20.32;62.81;100222.66;1691507;81;21715;-68
2021/05/14 09:08:02;;;;;;;6.97;2.27;;;;;;;20.27;62.96;100239.41;1690568;81;21745;-67
2021/05/14 09:10:31;;;;;;;9.78;2.60;;;;;;;20.17;63.53;100242.03;1701508;81;21055;-67
2021/05/14 09:12:58;;;;;;;6.10;2.67;;;;;;;20.08;64.29;100239.22;1698042;82;20983;-67
2021/05/14 09:15:31;;;;;;;4.08;2.80;;;;;;;19.89;64.85;100248.39;1702471;82;21488;-67
2021/05/14 09:18:18;;;;;;;4.77;2.80;;;;;;;19.77;65.74;100248.02;1699628;81;21504;-64
2021/05/14 09:20:57;;;;;;;6.00;2.50;;;;;;;19.67;66.09;100235.67;1673862;82;20942;-65
2021/05/14 09:23:34;;;;;;;6.58;2.67;;;;;;;19.59;66.28;100240.89;1701057;82;21030;-65
2021/05/14 09:26:15;;;;;;;7.72;2.67;;;;;;;19.50;67.04;100228.91;1674256;83;21540;-65
2021/05/14 09:28:50;;;;;;;8.45;2.87;;;;;;;19.44;67.20;100242.48;1708100;80;21575;-65
2021/05/14 09:31:24;;;;;;;6.75;2.77;;;;;;;19.35;67.71;100231.02;1747801;80;21406;-66
2021/05/14 09:33:57;;;;;;;5.15;2.90;;;;;;;19.28;67.80;100222.96;1757945;80;21129;-65
2021/05/14 09:36:36;;;;;;;11.55;2.75;;;;;;;19.22;68.18;100224.82;1706356;82;21148;-66
2021/05/14 09:39:06;;;;;;;9.20;2.92;;;;;;;19.12;68.76;100229.64;1717858;82;21078;-68
2021/05/14 09:41:40;;;;;;;6.97;3.12;;;;;;;19.09;69.28;100238.02;1704325;81;21011;-66
2021/05/14 09:44:19;;;;;;;4.90;2.72;;;;;;;19.06;69.79;100227.39;1705768;81;21670;-66
2021/05/14 09:46:48;;;;;;;6.62;2.60;;;;;;;19.00;70.13;100228.73;1739879;80;21026;-66
2021/05/14 09:49:21;;;;;;;6.40;2.80;;;;;;;18.97;70.34;100225.38;1739641;80;21026;-67
2021/05/14 09:51:55;;;;;;;7.33;2.72;;;;;;;18.97;70.99;100233.53;1744563;80;21552;-68
2021/05/14 09:54:36;;;;;;;8.23;2.62;;;;;;;18.95;71.04;100233.64;1738252;80;21180;-69
2021/05/14 10:00:04;;;;;;;10.75;2.85;;;;;;;18.82;71.16;100222.88;1708805;82;21016;-68
2021/05/14 10:02:35;;;;;;;7.03;2.65;;;;;;;18.78;71.46;100232.26;1680786;83;21333;-66
2021/05/14 10:05:07;;;;;;;5.35;2.52;;;;;;;18.78;71.35;100234.09;1738386;80;21700;-66
2021/05/14 10:07:36;;;;;;;5.85;2.33;;;;;;;18.82;70.65;100227.47;1743428;80;21379;-64
2021/05/14 10:10:08;;;;;;;4.60;2.10;;;;;;;18.86;70.27;100231.16;1738237;80;21113;-68
2021/05/14 10:12:36;;;;;;;8.50;2.70;;;;;;;18.94;69.75;100214.26;1751724;80;20934;-65
2021/05/14 10:15:10;;;;;;;5.58;2.60;;;;;;;18.99;68.24;100228.88;1744347;80;20884;-67
2021/05/14 10:17:41;;;;;;;7.45;2.40;;;;;;;18.98;68.04;100221.69;1739135;80;20935;-65
2021/05/14 10:20:19;;;;;;;5.92;2.90;;;;;;;18.90;68.65;100223.16;1748042;80;21496;-65
2021/05/14 10:22:47;;;;;;;8.33;3.15;;;;;;;18.80;69.56;100229.44;1751736;80;20980;-69
2021/05/14 10:25:20;;;;;;;6.58;2.85;;;;;;;18.66;70.59;100220.98;1750225;80;21377;-68
2021/05/14 10:27:44;;;;;;;5.87;2.80;;;;;;;18.58;71.49;100231.95;1695459;83;21568;-66
2021/05/14 10:30:13;;;;;;;5.85;2.55;;;;;;;18.49;71.79;100231.31;1709614;82;21011;-68
2021/05/14 10:32:49;;;;;;;8.30;2.80;;;;;;;18.43;72.38;100227.70;1717528;82;20948;-68
2021/05/14 10:35:25;;;;;;;9.45;3.25;;;;;;;18.39;73.63;100232.98;1713559;82;21077;-69
2021/05/14 10:38:02;;;;;;;9.03;3.27;;;;;;;18.32;74.12;100237.53;1690042;82;20963;-68
2021/05/14 10:40:35;;;;;;;9.23;3.05;;;;;;;18.29;74.47;100232.82;1710148;82;20979;-67
2021/05/14 10:43:10;;;;;;;12.35;3.12;;;;;;;18.25;74.70;100234.92;1702203;82;20979;-69
2021/05/14 10:45:44;;;;;;;8.33;2.98;;;;;;;18.22;75.33;100235.64;1702813;82;20967;-68
2021/05/14 10:48:18;;;;;;;9.73;3.10;;;;;;;18.17;75.95;100238.69;1708276;82;21127;-66
2021/05/14 10:50:57;;;;;;;8.63;2.80;;;;;;;18.13;76.58;100242.62;1680355;83;20949;-69
2021/05/14 10:53:46;;;;;;;9.53;3.05;;;;;;;18.08;76.58;100239.39;1697306;82;22055;-67
2021/05/14 10:56:24;;;;;;;8.00;2.37;;;;;;;18.03;76.88;100236.54;1702448;82;21683;-67
2021/05/14 10:59:02;;;;;;;8.60;3.20;;;;;;;18.01;76.54;100239.83;1662161;84;21930;-66
2021/05/14 11:01:34;;;;;;;9.60;3.17;;;;;;;18.01;76.50;100247.08;1657495;83;21484;-67
2021/05/14 11:04:04;;;;;;;9.00;2.90;;;;;;;17.99;76.97;100249.89;1700855;81;21014;-68
2021/05/14 11:06:45;;;;;;;7.37;3.10;;;;;;;17.95;77.49;100252.46;1691791;82;20978;-69
2021/05/14 11:09:16;;;;;;;8.23;2.90;;;;;;;17.91;77.87;100248.25;1705885;81;20967;-68
2021/05/14 11:12:05;;;;;;;9.35;3.30;;;;;;;17.84;78.26;100255.97;1698332;81;21277;-66
2021/05/14 11:14:48;;;;;;;6.55;3.25;;;;;;;17.81;78.91;100239.08;1699827;82;21522;-67
2021/05/14 11:17:20;;;;;;;6.17;3.12;;;;;;;17.78;79.04;100246.94;1696558;82;20982;-66
2021/05/14 11:19:52;;;;;;;7.90;2.85;;;;;;;17.72;79.20;100246.89;1694434;82;21316;-69
2021/05/14 11:22:28;;;;;;;4.60;2.80;;;;;;;17.68;79.42;100256.23;1726087;81;21892;-66
2021/05/14 11:25:20;;;;;;;9.10;3.20;;;;;;;17.65;79.95;100255.11;1688562;81;21124;-69
2021/05/14 11:27:51;;;;;;;6.05;2.85;;;;;;;17.64;80.52;100256.56;1710749;82;21665;-67
2021/05/14 11:30:17;;;;;;;6.60;3.30;;;;;;;17.65;80.71;100252.40;1710276;80;21093;-70
2021/05/14 11:32:46;;;;;;;11.70;3.27;;;;;;;17.61;81.16;100249.54;1697533;81;21141;-72
2021/05/14 11:35:24;;;;;;;5.80;3.33;;;;;;;17.58;81.32;100250.62;1697014;81;21159;-68
2021/05/14 11:37:57;;;;;;;8.78;3.75;;;;;;;17.57;81.39;100249.36;1687859;82;21125;-67
2021/05/14 11:40:34;;;;;;;7.90;3.60;;;;;;;17.56;81.73;100248.98;1692350;81;21465;-67